Time;durP1;ratioP1;P1;durP2;ratioP2;P2;SDS_P1;SDS_P2;PMS_P1;PMS_P2;Temp;Humidity;BMP_temperature;BMP_pressure;BME280_temperature;BME280_humidity;BME280_pressure;Samples;Min_cycle;Max_cycle;Signal;HPM_P1;HPM_P2
2022/05/22 00:01:50;;;;;;;24.95;7.32;;;;;;;12.56;100.00;101602.78;5095304;28;20028;-77
2022/05/22 00:04:16;;;;;;;24.50;7.53;;;;;;;12.47;100.00;101602.50;5095425;28;20100;-79
2022/05/22 00:06:41;;;;;;;16.95;6.50;;;;;;;12.57;100.00;101608.19;5097160;28;20020;-79
2022/05/22 00:09:07;;;;;;;26.13;7.53;;;;;;;12.55;100.00;101596.44;5111148;28;20090;-78
2022/05/22 00:11:32;;;;;;;23.38;7.43;;;;;;;12.49;100.00;101588.66;5094901;28;20451;-78
2022/05/22 00:13:58;;;;;;;28.02;7.72;;;;;;;12.34;100.00;101592.56;5096701;28;20031;-77
2022/05/22 00:16:36;;;;;;;21.95;7.93;;;;;;;12.20;100.00;101582.59;5114368;28;20023;-78
2022/05/22 00:19:06;;;;;;;19.08;7.90;;;;;;;12.26;100.00;101579.41;5063083;28;20036;-77
2022/05/22 00:21:32;;;;;;;22.55;7.82;;;;;;;12.26;100.00;101572.03;5091130;28;20036;-77
2022/05/22 00:23:58;;;;;;;26.85;7.50;;;;;;;12.19;100.00;101569.88;5097343;28;20111;-78
2022/05/22 00:26:23;;;;;;;21.13;6.95;;;;;;;12.25;100.00;101573.03;5083746;28;20023;-78
2022/05/22 00:28:50;;;;;;;22.85;7.25;;;;;;;12.21;100.00;101576.13;5113143;28;20075;-77
2022/05/22 00:31:15;;;;;;;16.23;6.80;;;;;;;12.25;100.00;101570.28;5094990;28;20043;-77
2022/05/22 00:33:40;;;;;;;13.98;6.70;;;;;;;12.41;100.00;101574.63;5061259;28;20031;-78
2022/05/22 00:36:06;;;;;;;19.05;6.60;;;;;;;12.35;100.00;101570.47;5094543;28;20024;-77
2022/05/22 00:38:32;;;;;;;21.10;8.00;;;;;;;12.42;100.00;101571.75;5077736;28;20031;-77
2022/05/22 00:40:58;;;;;;;17.58;7.75;;;;;;;12.37;100.00;101581.34;5079079;28;20044;-77
2022/05/22 00:43:42;;;;;;;17.92;7.55;;;;;;;12.37;100.00;101562.13;5109297;28;20084;-77
2022/05/22 00:46:11;;;;;;;16.73;7.38;;;;;;;12.44;100.00;101560.66;5098586;28;20040;-78
2022/05/22 00:48:39;;;;;;;18.70;8.45;;;;;;;12.39;100.00;101560.13;5105577;28;20031;-78
2022/05/22 00:51:20;;;;;;;15.20;6.55;;;;;;;12.34;100.00;101562.34;5079781;28;20122;-78
2022/05/22 00:53:51;;;;;;;26.13;7.50;;;;;;;12.37;100.00;101556.63;5096594;28;20032;-79
2022/05/22 00:56:23;;;;;;;24.38;9.43;;;;;;;12.31;100.00;101561.59;5094357;28;20035;-78
2022/05/22 00:58:52;;;;;;;17.70;6.90;;;;;;;12.46;100.00;101555.91;5117095;28;20027;-77
2022/05/22 01:01:17;;;;;;;15.15;6.68;;;;;;;12.48;100.00;101560.31;5116832;28;20424;-77
2022/05/22 01:03:44;;;;;;;18.63;7.70;;;;;;;12.51;100.00;101559.22;5099555;28;20106;-78
2022/05/22 01:06:16;;;;;;;23.95;8.90;;;;;;;12.55;100.00;101555.22;5097957;28;20608;-78
2022/05/22 01:08:42;;;;;;;24.15;7.57;;;;;;;12.50;100.00;101562.94;5100387;28;20040;-77
2022/05/22 01:11:12;;;;;;;26.00;8.65;;;;;;;12.40;100.00;101561.91;5081642;28;20036;-78
2022/05/22 01:13:49;;;;;;;24.77;8.38;;;;;;;12.45;100.00;101554.19;5099149;28;20466;-77
2022/05/22 01:16:15;;;;;;;22.58;7.50;;;;;;;12.50;100.00;101546.47;5098510;28;20024;-77
2022/05/22 01:18:53;;;;;;;18.98;8.38;;;;;;;12.45;100.00;101554.19;5117558;28;20024;-78
2022/05/22 01:21:21;;;;;;;17.45;8.15;;;;;;;12.40;100.00;101545.44;5100059;28;20106;-77
2022/05/22 01:23:48;;;;;;;18.50;8.27;;;;;;;12.40;100.00;101546.28;5100207;28;20027;-78
2022/05/22 01:26:14;;;;;;;29.23;8.05;;;;;;;12.29;100.00;101544.34;5094805;28;20042;-78
2022/05/22 01:28:40;;;;;;;22.27;7.60;;;;;;;12.26;100.00;101544.56;5090268;28;20043;-78
2022/05/22 01:31:06;;;;;;;22.10;8.18;;;;;;;12.32;100.00;101555.09;5080105;28;20482;-77
2022/05/22 01:33:34;;;;;;;27.88;7.30;;;;;;;12.37;100.00;101545.66;5096663;28;20039;-77
2022/05/22 01:36:00;;;;;;;22.50;7.72;;;;;;;12.31;100.00;101552.47;5117150;28;20043;-78
2022/05/22 01:38:26;;;;;;;26.77;8.13;;;;;;;12.36;100.00;101549.38;5099404;28;20114;-78
2022/05/22 01:40:51;;;;;;;18.83;7.43;;;;;;;12.37;100.00;101546.53;5084209;28;20067;-79
2022/05/22 01:43:17;;;;;;;22.25;7.07;;;;;;;12.32;100.00;101541.38;5112535;28;20032;-78
2022/05/22 01:45:43;;;;;;;22.15;7.00;;;;;;;12.31;100.00;101538.75;5098653;28;20073;-78
2022/05/22 01:48:12;;;;;;;20.15;7.30;;;;;;;12.20;100.00;101530.44;5100668;28;20111;-77
2022/05/22 01:50:39;;;;;;;16.42;7.07;;;;;;;12.07;100.00;101511.28;5078621;28;20058;-77
2022/05/22 01:53:05;;;;;;;21.33;8.00;;;;;;;12.03;100.00;101523.47;5117717;28;20462;-78
2022/05/22 01:55:31;;;;;;;15.70;7.15;;;;;;;11.93;100.00;101520.53;5099521;28;20024;-77
2022/05/22 01:57:57;;;;;;;15.32;7.22;;;;;;;11.74;100.00;101521.88;5117314;28;20027;-77
2022/05/22 02:00:25;;;;;;;22.05;8.27;;;;;;;11.73;100.00;101513.75;5076822;28;20596;-78
2022/05/22 02:02:54;;;;;;;20.40;7.88;;;;;;;11.63;100.00;101509.94;5098590;28;20039;-76
2022/05/22 02:05:20;;;;;;;19.13;8.50;;;;;;;11.55;100.00;101505.88;5078248;28;20035;-79
2022/05/22 02:10:31;;;;;;;19.23;7.80;;;;;;;11.73;100.00;101511.00;5100981;28;20035;-78
2022/05/22 02:12:58;;;;;;;22.17;8.15;;;;;;;11.75;100.00;101517.25;5115661;28;20039;-77
2022/05/22 02:15:24;;;;;;;15.27;8.15;;;;;;;11.57;100.00;101514.84;5095736;28;20036;-76
2022/05/22 02:17:50;;;;;;;18.65;8.20;;;;;;;11.53;100.00;101520.69;5099506;28;20034;-78
2022/05/22 02:20:16;;;;;;;18.15;8.48;;;;;;;11.61;100.00;101514.63;5099552;28;20035;-77
2022/05/22 02:22:54;;;;;;;14.13;8.07;;;;;;;11.64;100.00;101509.81;5116398;28;20039;-78
2022/05/22 02:25:24;;;;;;;22.73;8.95;;;;;;;11.61;100.00;101503.66;5078572;28;20055;-77
2022/05/22 02:27:49;;;;;;;24.27;7.85;;;;;;;11.54;100.00;101501.41;5109185;28;21574;-77
2022/05/22 02:30:20;;;;;;;30.55;8.88;;;;;;;11.42;100.00;101498.66;5114570;28;20083;-77
2022/05/22 02:32:46;;;;;;;21.38;8.95;;;;;;;11.44;100.00;101496.69;5115331;28;20410;-78
2022/05/22 02:35:13;;;;;;;21.05;8.65;;;;;;;11.53;100.00;101490.53;5094345;28;20044;-78
2022/05/22 02:37:51;;;;;;;23.85;9.27;;;;;;;11.42;100.00;101494.03;5096150;28;20115;-78
2022/05/22 02:40:19;;;;;;;17.98;8.32;;;;;;;11.25;100.00;101476.09;5080358;28;20042;-78
2022/05/22 02:42:47;;;;;;;20.60;8.25;;;;;;;11.12;100.00;101477.94;5098126;28;20024;-79
2022/05/22 02:45:16;;;;;;;26.92;8.88;;;;;;;11.12;100.00;101478.81;5095806;28;20031;-76
2022/05/22 02:47:42;;;;;;;18.58;9.38;;;;;;;11.20;100.00;101472.81;5113226;28;20486;-78
2022/05/22 02:50:09;;;;;;;22.48;9.57;;;;;;;11.30;100.00;101471.13;5098700;28;20038;-78
2022/05/22 02:52:35;;;;;;;17.33;9.13;;;;;;;11.29;100.00;101469.38;5093758;28;20038;-78
2022/05/22 02:55:01;;;;;;;22.80;9.43;;;;;;;11.24;100.00;101460.59;5094503;28;20047;-78
2022/05/22 02:57:26;;;;;;;25.90;11.68;;;;;;;11.15;100.00;101470.38;5074659;28;20028;-76
2022/05/22 02:59:54;;;;;;;18.60;8.95;;;;;;;11.09;100.00;101459.84;5080016;28;20075;-78
2022/05/22 03:02:20;;;;;;;16.92;8.82;;;;;;;11.08;100.00;101452.59;5071204;28;20126;-77
2022/05/22 03:04:48;;;;;;;21.65;9.80;;;;;;;11.07;100.00;101453.63;5078534;28;20122;-77
2022/05/22 03:07:16;;;;;;;19.52;9.80;;;;;;;11.06;100.00;101457.31;5077855;28;20032;-78
2022/05/22 03:09:43;;;;;;;24.45;9.48;;;;;;;11.06;100.00;101460.06;5113677;28;20096;-78
2022/05/22 03:12:20;;;;;;;27.73;9.57;;;;;;;10.99;100.00;101458.78;5115325;28;20036;-79
2022/05/22 03:14:54;;;;;;;28.67;10.18;;;;;;;11.02;100.00;101458.56;5097619;28;20062;-78
2022/05/22 03:17:20;;;;;;;22.35;9.55;;;;;;;10.95;100.00;101451.72;5116871;28;20058;-78
2022/05/22 03:19:46;;;;;;;33.38;10.43;;;;;;;10.94;100.00;101460.97;5096952;28;20048;-78
2022/05/22 03:22:12;;;;;;;22.98;10.68;;;;;;;10.82;100.00;101457.19;5097579;28;20031;-78
2022/05/22 03:24:39;;;;;;;19.85;9.35;;;;;;;10.90;100.00;101454.78;5080048;28;20043;-78
2022/05/22 03:27:13;;;;;;;21.10;10.00;;;;;;;10.96;100.00;101453.50;5097466;28;20043;-78
2022/05/22 03:29:40;;;;;;;19.67;9.75;;;;;;;10.94;100.00;101441.78;5112073;28;20111;-76
2022/05/22 03:32:08;;;;;;;22.92;9.25;;;;;;;10.88;100.00;101447.69;5079268;28;20403;-77
2022/05/22 03:34:34;;;;;;;18.23;9.63;;;;;;;10.87;100.00;101445.94;5114841;28;20024;-77
2022/05/22 03:37:00;;;;;;;19.77;9.98;;;;;;;10.92;100.00;101451.94;5063854;28;20039;-78
2022/05/22 03:39:27;;;;;;;35.58;9.43;;;;;;;10.97;100.00;101449.75;5052575;28;20062;-78
2022/05/22 03:41:53;;;;;;;29.02;10.13;;;;;;;11.06;100.00;101448.25;5095897;28;20028;-78
2022/05/22 03:44:19;;;;;;;30.23;10.80;;;;;;;11.00;100.00;101446.78;5116431;28;20039;-78
2022/05/22 03:46:44;;;;;;;18.52;9.50;;;;;;;11.02;100.00;101442.97;5115652;28;20509;-78
2022/05/22 03:49:11;;;;;;;25.92;10.10;;;;;;;10.95;100.00;101438.94;5096254;28;20032;-78
2022/05/22 03:51:38;;;;;;;25.52;10.57;;;;;;;10.92;100.00;101441.88;5079950;28;20055;-78
2022/05/22 03:54:03;;;;;;;16.60;9.75;;;;;;;10.74;100.00;101443.16;5079982;28;20530;-77
2022/05/22 03:56:31;;;;;;;15.65;8.82;;;;;;;10.69;100.00;101440.78;5114350;28;20056;-78
2022/05/22 03:58:56;;;;;;;18.95;9.88;;;;;;;10.74;100.00;101424.00;5061313;28;20055;-77
2022/05/22 04:01:22;;;;;;;19.55;9.93;;;;;;;10.64;100.00;101434.72;5112929;28;20082;-78
2022/05/22 04:03:47;;;;;;;19.25;9.40;;;;;;;10.72;100.00;101435.06;5080091;28;20043;-78
2022/05/22 04:06:13;;;;;;;18.20;9.73;;;;;;;10.60;100.00;101436.81;5090974;28;20046;-77
2022/05/22 04:08:39;;;;;;;17.92;10.95;;;;;;;10.48;100.00;101444.03;5114458;28;20051;-77
2022/05/22 04:11:12;;;;;;;27.30;9.85;;;;;;;10.51;100.00;101437.47;5096257;28;20155;-78
2022/05/22 04:13:38;;;;;;;20.63;10.60;;;;;;;10.47;100.00;101433.16;5115167;28;20513;-79
2022/05/22 04:16:04;;;;;;;18.30;10.23;;;;;;;10.47;100.00;101439.53;5115676;28;20026;-78
2022/05/22 04:18:32;;;;;;;19.48;10.93;;;;;;;10.50;100.00;101437.56;5080844;28;20047;-78
2022/05/22 04:20:58;;;;;;;20.88;10.35;;;;;;;10.53;100.00;101431.88;5064634;28;20126;-78
2022/05/22 04:26:08;;;;;;;19.00;10.88;;;;;;;10.57;100.00;101434.28;5098275;28;20066;-78
2022/05/22 04:28:34;;;;;;;23.85;11.70;;;;;;;10.71;100.00;101429.69;5082377;28;20378;-78
2022/05/22 04:31:03;;;;;;;23.98;11.30;;;;;;;10.76;100.00;101433.00;5066886;28;20039;-77
2022/05/22 04:33:33;;;;;;;21.67;11.50;;;;;;;10.76;100.00;101433.00;5082725;28;20068;-79
2022/05/22 04:35:59;;;;;;;28.92;12.52;;;;;;;10.87;100.00;101432.22;5107879;28;20482;-79
2022/05/22 04:38:26;;;;;;;21.63;11.88;;;;;;;10.97;100.00;101434.22;5085212;28;20051;-77
2022/05/22 04:40:57;;;;;;;18.38;12.48;;;;;;;11.01;100.00;101434.88;5080667;28;20051;-78
2022/05/22 04:43:23;;;;;;;27.20;11.98;;;;;;;11.00;100.00;101428.50;5082272;28;20035;-79
2022/05/22 04:45:50;;;;;;;23.52;11.50;;;;;;;11.04;100.00;101430.03;5082901;28;20028;-79
2022/05/22 04:48:17;;;;;;;24.50;13.18;;;;;;;11.09;100.00;101437.94;5120012;28;20047;-79
2022/05/22 04:50:47;;;;;;;27.50;12.32;;;;;;;11.16;100.00;101436.47;5100875;28;20084;-78
2022/05/22 04:53:16;;;;;;;28.73;12.05;;;;;;;11.24;100.00;101435.06;5100800;28;20032;-78
2022/05/22 04:55:42;;;;;;;19.80;11.40;;;;;;;11.31;100.00;101431.75;5117286;28;20024;-79
2022/05/22 04:58:08;;;;;;;39.47;12.25;;;;;;;11.43;100.00;101434.59;5119953;28;20106;-79
2022/05/22 05:00:34;;;;;;;32.20;12.13;;;;;;;11.35;100.00;101447.00;5099538;28;20084;-79
2022/05/22 05:03:00;;;;;;;25.77;12.23;;;;;;;11.54;100.00;101437.41;5083602;28;20707;-79
2022/05/22 05:05:27;;;;;;;21.75;11.60;;;;;;;11.72;100.00;101435.16;5084135;28;20032;-79
2022/05/22 05:07:53;;;;;;;26.25;11.38;;;;;;;11.93;100.00;101425.34;5119356;28;20035;-77
2022/05/22 05:10:21;;;;;;;20.52;11.20;;;;;;;12.00;100.00;101425.75;5084292;28;20055;-77
2022/05/22 05:12:47;;;;;;;27.50;12.65;;;;;;;11.94;100.00;101426.25;5117046;28;20053;-77
2022/05/22 05:15:17;;;;;;;22.83;11.00;;;;;;;11.85;100.00;101418.66;5082133;28;20039;-80
2022/05/22 05:17:44;;;;;;;25.35;11.45;;;;;;;11.86;100.00;101432.28;5119369;28;20027;-79
2022/05/22 05:20:11;;;;;;;22.48;11.65;;;;;;;11.85;100.00;101419.53;5101988;28;20032;-79
2022/05/22 05:22:37;;;;;;;22.13;11.75;;;;;;;12.03;100.00;101432.91;5118075;28;20067;-78
2022/05/22 05:25:04;;;;;;;23.98;11.57;;;;;;;12.00;100.00;101427.63;5083329;28;20032;-77
2022/05/22 05:27:30;;;;;;;18.27;12.05;;;;;;;12.03;100.00;101422.78;5118201;28;20035;-78
2022/05/22 05:29:56;;;;;;;24.40;12.48;;;;;;;12.24;100.00;101428.50;5085432;28;20043;-79
2022/05/22 05:32:23;;;;;;;19.85;11.98;;;;;;;12.54;100.00;101427.09;5118893;28;20073;-79
2022/05/22 05:34:59;;;;;;;19.35;11.23;;;;;;;12.84;100.00;101426.56;5083606;28;20043;-78
2022/05/22 05:37:25;;;;;;;22.58;11.65;;;;;;;13.29;100.00;101425.72;5102193;28;20036;-79
2022/05/22 05:39:51;;;;;;;22.23;10.65;;;;;;;13.73;100.00;101431.34;5100046;28;20043;-79
2022/05/22 05:42:17;;;;;;;21.13;10.68;;;;;;;13.33;100.00;101420.88;5080618;28;20036;-78
2022/05/22 05:44:42;;;;;;;21.98;11.45;;;;;;;13.24;100.00;101423.34;5098238;28;20116;-77
2022/05/22 05:47:09;;;;;;;19.17;10.85;;;;;;;13.83;100.00;101432.31;5099949;28;20045;-79
2022/05/22 05:49:36;;;;;;;21.13;10.20;;;;;;;14.46;100.00;101431.59;5092442;28;20028;-78
2022/05/22 05:52:03;;;;;;;17.55;10.27;;;;;;;14.13;100.00;101431.63;5073033;28;20062;-78
2022/05/22 05:54:28;;;;;;;19.23;10.05;;;;;;;14.33;100.00;101429.03;5090564;28;20028;-79
2022/05/22 05:56:54;;;;;;;16.42;10.52;;;;;;;14.18;100.00;101430.34;5076327;28;20024;-79
2022/05/22 05:59:20;;;;;;;26.10;11.25;;;;;;;14.58;100.00;101421.41;5072216;28;20051;-79
2022/05/22 06:01:46;;;;;;;24.70;9.63;;;;;;;15.08;100.00;101427.13;5078513;28;20395;-78
2022/05/22 06:04:11;;;;;;;16.95;9.40;;;;;;;15.50;100.00;101429.78;5083029;28;20028;-80
2022/05/22 06:06:37;;;;;;;19.00;10.25;;;;;;;15.81;100.00;101429.78;5082047;28;20099;-79
2022/05/22 06:09:04;;;;;;;23.77;10.23;;;;;;;15.40;100.00;101434.41;5081380;28;20470;-76
2022/05/22 06:11:29;;;;;;;23.40;10.00;;;;;;;15.66;100.00;101436.66;5091796;28;20032;-79
2022/05/22 06:13:55;;;;;;;24.05;9.98;;;;;;;15.92;100.00;101437.94;5098594;28;20039;-79
2022/05/22 06:16:20;;;;;;;24.55;10.30;;;;;;;15.58;100.00;101435.47;5081859;28;20974;-78
2022/05/22 06:18:47;;;;;;;24.00;10.35;;;;;;;15.02;100.00;101438.69;5100336;28;20089;-79
2022/05/22 06:21:15;;;;;;;20.95;9.95;;;;;;;14.79;100.00;101437.97;5083681;28;20031;-79
2022/05/22 06:23:42;;;;;;;23.67;11.02;;;;;;;14.81;100.00;101444.25;5079093;28;20141;-79
2022/05/22 06:26:09;;;;;;;25.23;11.52;;;;;;;14.60;100.00;101436.81;5060779;28;20055;-78
2022/05/22 06:28:35;;;;;;;18.60;11.35;;;;;;;14.56;100.00;101440.84;5097023;28;20023;-79
2022/05/22 06:31:01;;;;;;;28.75;11.85;;;;;;;14.60;100.00;101439.59;5081217;28;20566;-79
2022/05/22 06:33:29;;;;;;;21.95;11.27;;;;;;;14.92;100.00;101435.91;5082509;28;20442;-77
2022/05/22 06:35:55;;;;;;;25.45;10.35;;;;;;;15.39;100.00;101443.69;5082949;28;20348;-77
2022/05/22 06:41:10;;;;;;;29.92;11.95;;;;;;;15.07;100.00;101441.94;5085151;28;20032;-78
2022/05/22 06:43:36;;;;;;;28.60;11.90;;;;;;;15.13;100.00;101448.78;5114984;28;20027;-78
2022/05/22 06:46:03;;;;;;;21.88;12.32;;;;;;;15.36;100.00;101449.47;5115673;28;20032;-78
2022/05/22 06:48:29;;;;;;;17.85;10.82;;;;;;;16.27;100.00;101447.59;5082107;28;20032;-78
2022/05/22 06:50:55;;;;;;;19.63;10.98;;;;;;;16.47;100.00;101451.22;5115454;28;20130;-78
2022/05/22 06:53:21;;;;;;;26.73;10.70;;;;;;;17.11;100.00;101453.50;5095440;28;20127;-78
2022/05/22 06:55:47;;;;;;;29.15;11.63;;;;;;;16.04;100.00;101433.16;5113882;28;20019;-77
2022/05/22 06:58:12;;;;;;;18.65;10.77;;;;;;;16.24;100.00;101442.34;5048019;28;20028;-77
2022/05/22 07:00:38;;;;;;;29.05;11.90;;;;;;;16.75;100.00;101434.75;5105732;28;20488;-78
2022/05/22 07:03:03;;;;;;;21.35;10.30;;;;;;;17.99;100.00;101438.28;5113210;28;20032;-77
2022/05/22 07:05:29;;;;;;;24.13;10.60;;;;;;;19.29;100.00;101436.81;5114546;28;20367;-77
2022/05/22 07:07:54;;;;;;;18.95;10.38;;;;;;;17.74;100.00;101425.13;5093380;28;20040;-77
2022/05/22 07:11:38;;;;;;;21.20;11.15;;;;;;;17.87;100.00;101431.19;5113510;28;20036;-77
2022/05/22 07:13:07;;;;;;;29.60;11.25;;;;;;;18.18;100.00;101431.75;5110673;28;20039;-78
2022/05/22 07:15:32;;;;;;;20.40;11.05;;;;;;;19.49;100.00;101439.34;5094642;28;20035;-78
2022/05/22 07:17:57;;;;;;;25.55;12.27;;;;;;;17.95;100.00;101431.28;5076514;28;20035;-77
2022/05/22 07:20:23;;;;;;;22.02;11.45;;;;;;;18.68;100.00;101433.06;5075468;28;20023;-77
2022/05/22 07:22:49;;;;;;;28.58;10.90;;;;;;;18.73;100.00;101424.25;5088108;28;20146;-79
2022/05/22 07:25:14;;;;;;;19.65;9.63;;;;;;;20.25;100.00;101425.56;5094025;28;20160;-78
2022/05/22 07:27:41;;;;;;;22.73;10.40;;;;;;;19.58;100.00;101423.59;5058787;28;20035;-78
2022/05/22 07:30:07;;;;;;;27.08;11.05;;;;;;;19.17;100.00;101420.59;5060430;28;20032;-77
2022/05/22 07:32:35;;;;;;;24.77;11.57;;;;;;;19.05;100.00;101422.78;5077630;28;20044;-78
2022/05/22 07:35:00;;;;;;;24.92;10.90;;;;;;;19.56;100.00;101421.00;5043680;28;20063;-76
2022/05/22 07:37:26;;;;;;;23.50;10.52;;;;;;;21.00;88.66;101428.22;5076260;28;20126;-78
2022/05/22 07:39:52;;;;;;;18.13;9.65;;;;;;;20.69;89.43;101433.63;5089320;28;20042;-78
2022/05/22 07:42:17;;;;;;;18.58;9.48;;;;;;;19.64;96.67;101426.59;5111992;28;20036;-77
2022/05/22 07:44:43;;;;;;;29.10;10.85;;;;;;;20.56;97.00;101422.97;5093518;28;20035;-78
2022/05/22 07:47:08;;;;;;;25.48;11.20;;;;;;;20.09;97.36;101430.06;5082139;28;20052;-77
2022/05/22 07:52:19;;;;;;;21.95;10.02;;;;;;;20.26;92.09;101427.31;5068039;28;20388;-76
2022/05/22 07:54:46;;;;;;;29.23;10.23;;;;;;;19.37;98.90;101422.09;5072836;28;20036;-77
2022/05/22 07:57:12;;;;;;;28.25;9.70;;;;;;;19.73;96.08;101421.94;5071424;28;20075;-79
2022/05/22 07:59:39;;;;;;;24.33;10.52;;;;;;;19.20;98.73;101410.03;5038526;28;20055;-78
2022/05/22 08:02:08;;;;;;;28.35;9.30;;;;;;;19.24;96.33;101411.44;5071356;28;20048;-77
2022/05/22 08:04:34;;;;;;;25.30;9.05;;;;;;;19.58;93.10;101404.16;5076825;28;20060;-78
2022/05/22 08:07:00;;;;;;;21.48;9.30;;;;;;;19.66;94.88;101406.97;5060015;28;20552;-78
2022/05/22 08:09:26;;;;;;;24.05;8.75;;;;;;;19.47;94.06;101392.28;5077482;28;20533;-78
2022/05/22 08:11:55;;;;;;;25.40;7.55;;;;;;;19.73;86.93;101387.72;5079265;28;20449;-78
2022/05/22 08:14:20;;;;;;;20.00;7.60;;;;;;;20.73;82.59;101388.59;5056213;28;20041;-78
2022/05/22 08:16:46;;;;;;;18.10;6.30;;;;;;;20.18;80.11;101389.22;5078156;28;20039;-79
2022/05/22 08:19:12;;;;;;;18.45;7.07;;;;;;;21.82;73.41;101393.66;5076864;28;20036;-78
2022/05/22 08:21:38;;;;;;;21.42;7.93;;;;;;;21.84;74.46;101398.03;5075880;28;20476;-79
2022/05/22 08:24:04;;;;;;;20.58;8.52;;;;;;;21.63;78.44;101381.94;5076519;28;20064;-77
2022/05/22 08:26:29;;;;;;;25.13;9.25;;;;;;;21.12;81.69;101378.63;5056186;28;20073;-78
2022/05/22 08:28:55;;;;;;;26.02;8.82;;;;;;;21.29;79.21;101371.06;5054271;28;20032;-78
2022/05/22 08:31:21;;;;;;;18.92;8.15;;;;;;;22.24;74.43;101366.41;5076708;28;20534;-79
2022/05/22 08:33:47;;;;;;;22.92;8.10;;;;;;;21.95;76.39;101359.63;5077305;28;20037;-80
2022/05/22 08:36:12;;;;;;;24.92;8.55;;;;;;;21.16;78.02;101362.41;5071162;28;20086;-78
2022/05/22 08:38:38;;;;;;;23.98;7.82;;;;;;;21.35;79.71;101356.44;5075784;28;20036;-79
2022/05/22 08:41:10;;;;;;;20.92;7.20;;;;;;;21.91;73.82;101359.13;5075327;28;20040;-78
2022/05/22 08:43:46;;;;;;;17.23;7.35;;;;;;;21.74;71.58;101352.78;5075926;28;20479;-80
2022/05/22 08:46:19;;;;;;;19.80;8.10;;;;;;;21.14;75.80;101353.38;5078947;28;20380;-78
2022/05/22 08:48:53;;;;;;;21.25;8.73;;;;;;;21.38;74.96;101344.91;5114332;28;20031;-78
2022/05/22 08:51:36;;;;;;;23.02;7.75;;;;;;;21.61;74.00;101338.56;5117752;28;20770;-78
2022/05/22 08:54:24;;;;;;;18.85;8.43;;;;;;;21.96;71.18;101336.28;5114810;28;20043;-79
2022/05/22 08:59:39;;;;;;;20.30;8.55;;;;;;;22.50;68.86;101325.03;5103185;28;20395;-79
2022/05/22 09:02:30;;;;;;;25.20;8.18;;;;;;;22.94;68.04;101323.38;5083538;28;20027;-78
2022/05/22 09:05:10;;;;;;;23.30;8.50;;;;;;;23.05;69.95;101322.88;5099549;28;20040;-79
2022/05/22 09:08:02;;;;;;;22.45;8.38;;;;;;;22.76;67.31;101332.13;5117667;28;20055;-77
2022/05/22 09:10:37;;;;;;;20.98;8.48;;;;;;;23.62;64.36;101329.69;5082632;28;20077;-76
2022/05/22 09:13:11;;;;;;;36.80;9.45;;;;;;;22.91;66.41;101318.19;5093619;28;20529;-77
2022/05/22 09:15:51;;;;;;;27.30;9.75;;;;;;;21.87;68.29;101315.06;5088425;28;20031;-77
2022/05/22 09:18:37;;;;;;;37.15;10.02;;;;;;;21.84;73.83;101313.50;5097398;28;20024;-77
2022/05/22 09:21:14;;;;;;;27.73;9.73;;;;;;;21.82;73.50;101310.03;5107961;28;20043;-77
2022/05/22 09:23:56;;;;;;;33.85;9.65;;;;;;;21.64;72.79;101304.75;5098346;28;20051;-77
2022/05/22 09:26:41;;;;;;;28.08;9.68;;;;;;;22.00;71.41;101299.44;5093300;28;20035;-77
2022/05/22 09:29:29;;;;;;;28.23;10.43;;;;;;;23.20;64.26;101296.91;5096352;28;20084;-77
2022/05/22 09:31:57;;;;;;;26.08;10.93;;;;;;;21.78;68.81;101294.75;5075054;28;20051;-78
2022/05/22 09:34:41;;;;;;;32.65;11.38;;;;;;;21.82;71.25;101290.50;5075480;28;20031;-77
2022/05/22 09:37:15;;;;;;;28.30;11.60;;;;;;;23.16;63.27;101301.16;5097197;28;20103;-77
2022/05/22 09:39:47;;;;;;;28.85;11.57;;;;;;;23.31;61.82;101296.41;5081627;28;20032;-79
2022/05/22 09:42:54;;;;;;;31.48;11.90;;;;;;;22.53;66.14;101291.19;5113957;28;20535;-77
2022/05/22 09:45:44;;;;;;;31.38;12.43;;;;;;;22.41;67.75;101295.47;5072637;28;20035;-78
2022/05/22 09:48:42;;;;;;;28.90;12.57;;;;;;;22.83;63.43;101293.13;5095594;28;20051;-77
2022/05/22 09:51:12;;;;;;;34.22;12.25;;;;;;;21.93;66.99;101297.59;5098249;28;20119;-78
2022/05/22 09:53:49;;;;;;;32.55;12.15;;;;;;;22.35;64.33;101294.31;5080681;28;20055;-78
2022/05/22 09:56:18;;;;;;;45.97;13.38;;;;;;;23.25;62.04;101288.81;5097133;28;20032;-77
2022/05/22 09:59:11;;;;;;;33.80;12.75;;;;;;;21.58;68.52;101284.06;5113655;28;20038;-78
2022/05/22 10:01:43;;;;;;;28.98;11.55;;;;;;;22.17;65.42;101283.47;5096822;28;20032;-77
2022/05/22 10:04:34;;;;;;;32.60;13.48;;;;;;;22.31;67.26;101283.72;5081640;28;20035;-77
2022/05/22 10:07:28;;;;;;;32.55;12.90;;;;;;;22.05;70.50;101284.94;5094579;28;20035;-78
2022/05/22 10:10:02;;;;;;;31.60;13.52;;;;;;;22.27;66.29;101287.88;5097826;28;20038;-77
2022/05/22 10:12:53;;;;;;;42.65;12.80;;;;;;;22.11;70.48;101286.13;5076717;28;20134;-79
2022/05/22 10:15:53;;;;;;;33.08;12.48;;;;;;;22.73;65.45;101282.25;5112166;28;20088;-78
2022/05/22 10:18:24;;;;;;;33.53;13.30;;;;;;;22.88;64.65;101279.47;5108681;28;20077;-78
2022/05/22 10:21:17;;;;;;;33.58;13.77;;;;;;;22.57;68.65;101272.13;5099629;28;20123;-79
2022/05/22 10:24:02;;;;;;;34.13;13.82;;;;;;;22.84;69.50;101267.81;5116122;28;20028;-79
2022/05/22 10:26:49;;;;;;;38.83;14.23;;;;;;;23.55;66.43;101270.06;5093025;28;20038;-78
2022/05/22 10:29:50;;;;;;;41.33;13.73;;;;;;;23.29;67.23;101271.47;5112621;28;20031;-78
2022/05/22 10:33:10;;;;;;;32.05;14.55;;;;;;;22.89;65.58;101259.72;5094423;28;20031;-77
2022/05/22 10:36:08;;;;;;;45.63;13.63;;;;;;;23.46;65.50;101254.47;5060357;28;20050;-78
2022/05/22 10:38:45;;;;;;;33.92;12.52;;;;;;;23.88;62.57;101257.53;5089312;28;20039;-78
2022/05/22 10:44:37;;;;;;;28.33;11.00;;;;;;;23.04;60.18;101248.53;5115886;28;20452;-78
2022/05/22 10:47:03;;;;;;;29.15;11.00;;;;;;;23.27;59.70;101244.78;5092361;28;20147;-78
2022/05/22 10:49:38;;;;;;;30.70;11.60;;;;;;;22.74;64.55;101245.78;5076539;28;20063;-77
2022/05/22 10:52:06;;;;;;;31.35;12.30;;;;;;;23.89;59.67;101234.09;5078357;28;20072;-77
2022/05/22 10:54:35;;;;;;;39.33;13.38;;;;;;;24.23;55.13;101233.31;5080775;28;20067;-79
2022/05/22 10:57:28;;;;;;;28.38;11.88;;;;;;;23.23;62.57;101218.28;5101361;28;20024;-78
2022/05/22 10:59:54;;;;;;;29.85;11.40;;;;;;;24.01;58.99;101212.91;5113384;27;20616;-79
2022/05/22 11:02:28;;;;;;;28.70;10.77;;;;;;;22.71;60.99;101218.22;5083373;28;20024;-78
2022/05/22 11:04:57;;;;;;;34.92;11.32;;;;;;;22.54;63.16;101223.13;5110511;27;20399;-77
2022/05/22 11:07:43;;;;;;;28.23;10.80;;;;;;;22.98;62.62;101215.78;5114270;27;20117;-78
2022/05/22 11:10:12;;;;;;;39.97;12.73;;;;;;;23.07;58.97;101200.69;5114167;27;20027;-78
2022/05/22 11:12:38;;;;;;;43.17;12.68;;;;;;;22.88;60.58;101201.28;5115666;27;20131;-77
2022/05/22 11:15:10;;;;;;;33.60;12.90;;;;;;;24.19;56.57;101190.03;5103607;28;20027;-78
2022/05/22 11:17:36;;;;;;;40.80;11.93;;;;;;;23.38;58.54;101191.19;5110491;27;20533;-78
2022/05/22 11:20:16;;;;;;;44.33;13.18;;;;;;;23.35;56.44;101199.06;5120573;27;20405;-77
2022/05/22 11:23:06;;;;;;;30.80;13.35;;;;;;;23.13;57.41;101199.03;5096157;28;20048;-79
2022/05/22 11:25:35;;;;;;;48.20;11.77;;;;;;;23.41;59.99;101192.69;5097046;28;20476;-78
2022/05/22 11:28:28;;;;;;;36.90;14.05;;;;;;;22.67;58.34;101188.09;5119322;27;20031;-76
2022/05/22 11:31:22;;;;;;;36.85;14.20;;;;;;;22.28;64.42;101189.19;5117084;27;20039;-77
2022/05/22 11:34:18;;;;;;;35.00;13.60;;;;;;;22.84;59.88;101180.38;5093670;28;20107;-78
2022/05/22 11:37:00;;;;;;;37.13;13.80;;;;;;;22.25;62.29;101173.72;5099008;27;20505;-78
2022/05/22 11:40:06;;;;;;;38.07;14.80;;;;;;;22.07;62.67;101168.50;5104760;27;20038;-77